createdAt,value
2018-03-06T00:00:17.794Z,99104.91
2018-03-06T00:03:26.654Z,99106.34
2018-03-06T00:06:35.793Z,99106.34
2018-03-06T00:09:46.681Z,99110.13
2018-03-06T00:12:54.693Z,99115.75
2018-03-06T00:16:03.193Z,99117.76
2018-03-06T00:19:10.547Z,99117.39
2018-03-06T00:22:20.083Z,99113.25
2018-03-06T00:25:28.708Z,99109.66
2018-03-06T00:28:34.893Z,99111.33
2018-03-06T00:31:40.798Z,99110.97
2018-03-06T00:34:48.080Z,99103.55
2018-03-06T00:38:02.156Z,99110.30
2018-03-06T00:41:07.729Z,99106.16
2018-03-06T00:44:13.547Z,99107.06
2018-03-06T00:47:20.313Z,99100.38
2018-03-06T00:50:27.319Z,99099.14
2018-03-06T00:53:34.600Z,99096.67
2018-03-06T00:56:43.132Z,99098.48
2018-03-06T00:59:49.653Z,99097.66
2018-03-06T01:02:55.393Z,99100.21
2018-03-06T01:06:01.422Z,99099.03
2018-03-06T01:09:06.961Z,99091.99
2018-03-06T01:12:12.827Z,99089.96
2018-03-06T01:15:19.249Z,99076.11
2018-03-06T01:18:24.870Z,99079.63
2018-03-06T01:21:30.704Z,99076.03
2018-03-06T01:24:36.267Z,99085.30
2018-03-06T01:27:46.917Z,99082.00
2018-03-06T01:30:52.555Z,99079.13
2018-03-06T01:33:58.541Z,99074.09
2018-03-06T01:37:04.396Z,99073.76
2018-03-06T01:40:09.927Z,99066.68
2018-03-06T01:43:16.319Z,99063.28
2018-03-06T01:46:22.068Z,99058.65
2018-03-06T01:49:28.873Z,99064.16
2018-03-06T01:52:34.403Z,99061.36
2018-03-06T01:55:41.754Z,99070.55
2018-03-06T01:58:47.283Z,99060.97
2018-03-06T02:01:52.866Z,99050.92
2018-03-06T02:05:00.182Z,99046.83
2018-03-06T02:08:05.715Z,99046.95
2018-03-06T02:11:11.142Z,99038.18
2018-03-06T02:14:16.686Z,99036.55
2018-03-06T02:17:22.537Z,99039.62
2018-03-06T02:20:28.099Z,99032.13
2018-03-06T02:23:34.089Z,99034.27
2018-03-06T02:26:39.625Z,99038.53
2018-03-06T02:29:45.889Z,99032.64
2018-03-06T02:32:53.427Z,99038.97
2018-03-06T02:36:02.070Z,99033.51
2018-03-06T02:39:07.832Z,99033.59
2018-03-06T02:42:13.628Z,99034.84
2018-03-06T02:45:19.227Z,99034.38
2018-03-06T02:48:24.956Z,99026.95
2018-03-06T02:51:30.529Z,99027.41
2018-03-06T02:54:36.673Z,99025.64
2018-03-06T02:57:45.352Z,99031.14
2018-03-06T03:00:51.761Z,99029.08
2018-03-06T03:03:57.313Z,99019.81
2018-03-06T03:07:03.104Z,99022.31
2018-03-06T03:10:08.637Z,99016.81
2018-03-06T03:13:14.196Z,99013.44
2018-03-06T03:19:29.280Z,99020.03
2018-03-06T03:22:34.853Z,99017.95
2018-03-06T03:25:40.267Z,99014.98
2018-03-06T03:28:45.822Z,99021.19
2018-03-06T03:31:51.624Z,99014.02
2018-03-06T03:34:57.527Z,99011.95
2018-03-06T03:38:03.281Z,99010.77
2018-03-06T03:41:08.848Z,99011.20
2018-03-06T03:44:14.421Z,99014.98
2018-03-06T03:47:19.982Z,99007.91
2018-03-06T03:50:25.794Z,99004.20
2018-03-06T03:53:31.366Z,99007.95
2018-03-06T03:56:36.901Z,99002.55
2018-03-06T03:59:42.699Z,98999.65
2018-03-06T04:02:48.273Z,99000.50
2018-03-06T04:05:53.853Z,99001.78
2018-03-06T04:08:59.400Z,99001.86
2018-03-06T04:12:04.768Z,99012.41
2018-03-06T04:15:10.342Z,99009.42
2018-03-06T04:21:26.489Z,99010.31
2018-03-06T04:24:32.042Z,99016.23
2018-03-06T04:27:37.641Z,99014.15
2018-03-06T04:30:43.185Z,99004.53
2018-03-06T04:33:48.756Z,99004.58
2018-03-06T04:36:54.292Z,98998.73
2018-03-06T04:40:00.086Z,98994.13
2018-03-06T04:43:05.867Z,98989.60
2018-03-06T04:46:11.409Z,98987.75
2018-03-06T04:49:16.989Z,98984.48
2018-03-06T04:52:22.529Z,98983.09
2018-03-06T04:55:28.321Z,98980.36
2018-03-06T04:58:33.588Z,98981.17
2018-03-06T05:01:39.188Z,98981.65
2018-03-06T05:04:44.733Z,98986.25
2018-03-06T05:07:50.550Z,98976.25
2018-03-06T05:10:56.148Z,98984.20
2018-03-06T05:14:01.689Z,98982.75
2018-03-06T05:17:07.273Z,98978.88
2018-03-06T05:20:13.530Z,98981.85
2018-03-06T05:23:19.103Z,98978.17
2018-03-06T05:26:24.848Z,98977.37
2018-03-06T05:29:30.433Z,98985.24
2018-03-06T05:32:36.033Z,98982.39
2018-03-06T05:35:41.858Z,98981.95
2018-03-06T05:38:47.384Z,98984.47
2018-03-06T05:41:52.944Z,98984.59
2018-03-06T05:44:58.764Z,98979.98
2018-03-06T05:48:04.314Z,98969.91
2018-03-06T05:51:14.093Z,98975.67
2018-03-06T05:58:00.166Z,98976.62
2018-03-06T06:01:05.980Z,98977.62
2018-03-06T06:04:34.111Z,98980.11
2018-03-06T06:07:44.092Z,98989.37
2018-03-06T06:10:49.896Z,98990.70
2018-03-06T06:13:55.824Z,98986.78
2018-03-06T06:17:05.860Z,98987.45
2018-03-06T06:20:12.764Z,98976.48
2018-03-06T06:23:18.624Z,98977.83
2018-03-06T06:26:24.196Z,98980.79
2018-03-06T06:29:29.702Z,98986.34
2018-03-06T06:32:35.254Z,98993.48
2018-03-06T06:35:40.809Z,98988.08
2018-03-06T06:38:46.317Z,98989.73
2018-03-06T06:41:51.864Z,98991.86
2018-03-06T06:44:57.373Z,98996.53
2018-03-06T06:48:02.925Z,98990.72
2018-03-06T06:51:08.436Z,98997.84
2018-03-06T06:54:13.759Z,98992.73
2018-03-06T06:57:19.313Z,98988.22
2018-03-06T07:00:24.865Z,98993.65
2018-03-06T07:03:30.431Z,98997.77
2018-03-06T07:06:35.985Z,98987.19
2018-03-06T07:09:41.486Z,98993.75
2018-03-06T07:12:47.037Z,98989.53
2018-03-06T07:15:52.596Z,98993.56
2018-03-06T07:18:58.157Z,98992.61
2018-03-06T07:22:03.675Z,98989.95
2018-03-06T07:25:09.220Z,98995.23
2018-03-06T07:28:14.773Z,98994.23
2018-03-06T07:31:20.278Z,98994.47
2018-03-06T07:34:25.833Z,98994.39
2018-03-06T07:37:31.336Z,98997.23
2018-03-06T07:40:36.910Z,98997.10
2018-03-06T07:43:42.421Z,99001.19
2018-03-06T07:46:47.993Z,99000.27
2018-03-06T07:49:53.500Z,98997.64
2018-03-06T07:52:59.045Z,98994.63
2018-03-06T07:56:04.602Z,98998.72
2018-03-06T07:59:10.159Z,99000.76
2018-03-06T08:02:15.677Z,99000.19
2018-03-06T08:05:21.237Z,99001.76
2018-03-06T08:08:26.745Z,98996.63
2018-03-06T08:11:32.305Z,99000.28
2018-03-06T08:14:37.817Z,99002.27
2018-03-06T08:17:43.357Z,98999.66
2018-03-06T08:20:48.910Z,99001.17
2018-03-06T08:23:54.550Z,98991.41
2018-03-06T08:27:00.062Z,98992.12
2018-03-06T08:30:05.632Z,98994.52
2018-03-06T08:33:11.137Z,98990.08
2018-03-06T08:36:16.688Z,98991.66
2018-03-06T08:39:22.265Z,98993.17
2018-03-06T08:42:27.842Z,98992.19
2018-03-06T08:45:33.429Z,98995.83
2018-03-06T08:48:38.932Z,98999.86
2018-03-06T08:51:44.465Z,99009.33
2018-03-06T08:54:50.003Z,99009.57
2018-03-06T08:57:55.362Z,99000.56
2018-03-06T09:01:00.927Z,99001.65
2018-03-06T09:04:06.421Z,99003.21
2018-03-06T09:07:12.012Z,99005.56
2018-03-06T09:10:17.277Z,99005.86
2018-03-06T09:13:22.840Z,99011.64
2018-03-06T09:16:28.394Z,99013.64
2018-03-06T09:19:33.940Z,99004.25
2018-03-06T09:22:39.429Z,99006.24
2018-03-06T09:25:44.966Z,99003.19
2018-03-06T09:28:50.519Z,98996.75
2018-03-06T09:31:56.013Z,99002.09
2018-03-06T09:35:01.554Z,98999.01
2018-03-06T09:38:07.097Z,98991.75
2018-03-06T09:41:12.596Z,98994.98
2018-03-06T09:44:18.125Z,98994.41
2018-03-06T09:47:23.661Z,99001.46
2018-03-06T09:50:29.205Z,98995.43
2018-03-06T09:53:34.758Z,98994.90
2018-03-06T09:56:40.105Z,98992.66
2018-03-06T09:59:45.645Z,98995.03
2018-03-06T10:02:51.142Z,98986.94
2018-03-06T10:05:56.701Z,98989.34
2018-03-06T10:09:02.193Z,98985.36
2018-03-06T10:12:07.484Z,98980.21
2018-03-06T10:15:12.993Z,98983.47
2018-03-06T10:18:18.540Z,98979.55
2018-03-06T10:21:24.069Z,98974.74
2018-03-06T10:24:29.610Z,98970.00
2018-03-06T10:27:35.117Z,98965.19
2018-03-06T10:30:40.652Z,98965.88
2018-03-06T10:33:46.201Z,98963.66
2018-03-06T10:36:51.748Z,98963.53
2018-03-06T10:39:57.302Z,98957.08
2018-03-06T10:43:02.816Z,98948.94
2018-03-06T10:46:08.591Z,98951.34
2018-03-06T10:49:14.149Z,98946.97
2018-03-06T10:52:19.651Z,98946.83
2018-03-06T10:55:24.896Z,98944.20
2018-03-06T10:58:30.454Z,98936.44
2018-03-06T11:01:36.985Z,98939.66
2018-03-06T11:04:42.503Z,98926.89
2018-03-06T11:07:48.049Z,98933.47
2018-03-06T11:10:53.552Z,98927.03
2018-03-06T11:13:59.094Z,98928.16
2018-03-06T11:17:04.602Z,98922.95
2018-03-06T11:20:10.149Z,98919.88
2018-03-06T11:23:15.665Z,98914.67
2018-03-06T11:26:21.346Z,98916.28
2018-03-06T11:29:26.889Z,98917.78
2018-03-06T11:32:32.389Z,98912.09
2018-03-06T11:35:37.922Z,98912.36
2018-03-06T11:38:43.470Z,98910.51
2018-03-06T11:41:48.997Z,98907.39
2018-03-06T11:44:54.561Z,98909.33
2018-03-06T11:48:00.063Z,98903.37
2018-03-06T11:51:05.463Z,98905.31
2018-03-06T11:54:11.002Z,98908.11
2018-03-06T11:57:16.555Z,98902.83
2018-03-06T12:00:22.118Z,98898.06
2018-03-06T12:03:27.632Z,98892.80
2018-03-06T12:06:33.194Z,98893.52
2018-03-06T12:09:38.713Z,98888.72
2018-03-06T12:12:44.296Z,98888.57
2018-03-06T12:15:49.954Z,98892.25
2018-03-06T12:18:55.466Z,98890.50
2018-03-06T12:22:01.027Z,98892.00
2018-03-06T12:25:06.545Z,98884.28
2018-03-06T12:28:12.084Z,98884.98
2018-03-06T12:31:17.629Z,98880.21
2018-03-06T12:34:23.195Z,98879.66
2018-03-06T12:37:28.742Z,98877.82
2018-03-06T12:40:34.025Z,98881.06
2018-03-06T12:43:39.578Z,98877.89
2018-03-06T12:46:45.084Z,98873.93
2018-03-06T12:49:50.652Z,98876.31
2018-03-06T12:52:56.265Z,98866.53
2018-03-06T12:56:01.800Z,98871.05
2018-03-06T12:59:07.306Z,98867.95
2018-03-06T13:02:12.853Z,98867.08
2018-03-06T13:05:18.389Z,98860.66
2018-03-06T13:08:23.929Z,98859.23
2018-03-06T13:11:29.450Z,98857.41
2018-03-06T13:14:34.992Z,98853.53
2018-03-06T13:17:46.693Z,98853.84
2018-03-06T13:20:52.229Z,98846.98
2018-03-06T13:23:57.733Z,98852.34
2018-03-06T13:27:03.298Z,98845.07
2018-03-06T13:30:08.792Z,98840.77
2018-03-06T13:33:14.344Z,98846.99
2018-03-06T13:36:19.844Z,98836.35
2018-03-06T13:39:25.426Z,98842.50
2018-03-06T13:42:30.953Z,98836.12
2018-03-06T13:45:36.506Z,98835.63
2018-03-06T13:48:42.071Z,98832.56
2018-03-06T13:51:47.642Z,98837.15
2018-03-06T13:54:53.192Z,98834.56
2018-03-06T13:57:58.699Z,98831.87
2018-03-06T14:01:04.261Z,98834.32
2018-03-06T14:04:09.771Z,98833.02
2018-03-06T14:07:15.317Z,98825.77
2018-03-06T14:10:20.864Z,98823.15
2018-03-06T14:13:26.369Z,98824.42
2018-03-06T14:16:31.916Z,98825.11
2018-03-06T14:19:37.481Z,98823.35
2018-03-06T14:22:43.027Z,98811.80
2018-03-06T14:25:48.528Z,98812.14
2018-03-06T14:28:54.073Z,98815.86
2018-03-06T14:31:59.573Z,98811.52
2018-03-06T14:35:04.858Z,98807.22
2018-03-06T14:38:10.367Z,98807.09
2018-03-06T14:41:15.908Z,98806.60
2018-03-06T14:44:21.412Z,98809.05
2018-03-06T14:47:26.960Z,98807.70
2018-03-06T14:50:32.462Z,98813.93
2018-03-06T14:53:38.022Z,98805.45
2018-03-06T14:56:43.525Z,98806.67
2018-03-06T14:59:49.071Z,98814.25
2018-03-06T15:02:54.621Z,98812.12
2018-03-06T15:06:00.120Z,98805.77
2018-03-06T15:09:05.182Z,98806.63
2018-03-06T15:12:10.688Z,98809.12
2018-03-06T15:15:16.250Z,98818.42
2018-03-06T15:18:21.792Z,98815.47
2018-03-06T15:21:27.326Z,98809.53
2018-03-06T15:24:32.830Z,98820.10
2018-03-06T15:27:42.933Z,98819.28
2018-03-06T15:30:48.473Z,98819.28
2018-03-06T15:33:53.998Z,98821.86
2018-03-06T15:36:59.535Z,98821.86
2018-03-06T15:40:05.051Z,98820.23
2018-03-06T15:43:10.622Z,98813.97
2018-03-06T15:46:16.125Z,98817.41
2018-03-06T15:49:25.562Z,98819.17
2018-03-06T15:52:35.688Z,98815.89
2018-03-06T15:55:44.538Z,98813.89
2018-03-06T15:58:50.091Z,98814.83
2018-03-06T16:01:55.591Z,98811.48
2018-03-06T16:05:07.112Z,98808.66
2018-03-06T16:08:30.137Z,98817.21
2018-03-06T16:11:53.880Z,98809.31
2018-03-06T16:19:12.062Z,98816.72
2018-03-06T16:22:41.646Z,98817.67
2018-03-06T16:26:22.489Z,98811.07
2018-03-06T16:29:48.262Z,98810.38
2018-03-06T16:33:14.744Z,98809.64
2018-03-06T16:36:43.070Z,98817.79
2018-03-06T16:40:09.533Z,98807.39
2018-03-06T16:43:36.345Z,98812.17
2018-03-06T16:46:58.074Z,98814.42
2018-03-06T16:50:23.032Z,98814.99
2018-03-06T16:53:43.585Z,98816.05
2018-03-06T16:57:24.057Z,98818.75
2018-03-06T17:00:45.547Z,98820.63
2018-03-06T17:07:53.898Z,98829.38
2018-03-06T17:14:52.504Z,98839.80
2018-03-06T17:18:20.583Z,98844.20
2018-03-06T17:21:44.523Z,98846.03
2018-03-06T17:25:16.506Z,98843.66
2018-03-06T17:28:43.078Z,98841.80
2018-03-06T17:32:22.800Z,98850.79
2018-03-06T17:35:47.397Z,98853.48
2018-03-06T17:39:24.892Z,98850.72
2018-03-06T17:42:47.463Z,98859.74
2018-03-06T17:46:13.745Z,98854.42
2018-03-06T17:49:33.675Z,98854.57
2018-03-06T17:52:56.042Z,98856.02
2018-03-06T17:56:23.439Z,98860.80
2018-03-06T17:59:48.827Z,98857.59
2018-03-06T18:03:15.364Z,98861.12
2018-03-06T18:06:39.352Z,98856.63
2018-03-06T18:10:21.192Z,98868.62
2018-03-06T18:14:03.978Z,98876.41
2018-03-06T18:17:28.933Z,98873.54
2018-03-06T18:20:52.921Z,98876.25
2018-03-06T18:24:27.684Z,98880.16
2018-03-06T18:27:55.673Z,98885.38
2018-03-06T18:31:20.360Z,98883.36
2018-03-06T18:34:43.511Z,98886.89
2018-03-06T18:38:07.390Z,98879.03
2018-03-06T18:41:35.600Z,98877.45
2018-03-06T18:45:04.676Z,98878.80
2018-03-06T18:48:28.732Z,98880.69
2018-03-06T18:52:06.591Z,98886.68
2018-03-06T18:55:25.760Z,98884.25
2018-03-06T18:58:49.025Z,98877.20
2018-03-06T19:02:27.251Z,98876.88
2018-03-06T19:05:56.668Z,98882.93
2018-03-06T19:09:21.113Z,98886.83
2018-03-06T19:12:44.188Z,98882.70
2018-03-06T19:16:12.045Z,98885.33
2018-03-06T19:19:28.160Z,98887.56
2018-03-06T19:22:47.473Z,98881.78
2018-03-06T19:26:13.096Z,98879.72
2018-03-06T19:29:37.308Z,98877.70
2018-03-06T19:33:03.768Z,98878.67
2018-03-06T19:36:27.883Z,98883.42
2018-03-06T19:39:56.534Z,98874.19
2018-03-06T19:43:21.788Z,98883.59
2018-03-06T19:47:03.974Z,98882.39
2018-03-06T19:50:31.178Z,98882.05
2018-03-06T19:54:00.397Z,98880.48
2018-03-06T19:57:24.768Z,98886.91
2018-03-06T20:01:07.644Z,98889.92
2018-03-06T20:04:32.160Z,98890.47
2018-03-06T20:08:14.214Z,98893.13
2018-03-06T20:11:39.485Z,98891.93
2018-03-06T20:15:24.511Z,98881.88
2018-03-06T20:18:50.024Z,98885.33
2018-03-06T20:22:12.316Z,98888.37
2018-03-06T20:25:53.464Z,98885.91
2018-03-06T20:29:13.276Z,98886.01
2018-03-06T20:32:41.375Z,98885.63
2018-03-06T20:36:11.169Z,98885.73
2018-03-06T20:39:41.799Z,98882.41
2018-03-06T20:43:06.662Z,98880.40
2018-03-06T20:46:36.033Z,98885.94
2018-03-06T20:49:47.656Z,98883.53
2018-03-06T20:53:10.353Z,98879.36
2018-03-06T20:56:21.569Z,98881.13
2018-03-06T20:59:31.617Z,98887.49
2018-03-06T21:02:49.899Z,98882.88
2018-03-06T21:06:02.012Z,98881.71
2018-03-06T21:09:09.499Z,98880.10
2018-03-06T21:12:15.398Z,98878.48
2018-03-06T21:15:20.922Z,98879.85
2018-03-06T21:18:26.498Z,98882.89
2018-03-06T21:21:32.001Z,98881.72
2018-03-06T21:24:37.561Z,98880.11
2018-03-06T21:27:44.562Z,98878.06
2018-03-06T21:30:50.125Z,98880.21
2018-03-06T21:33:55.686Z,98875.56
2018-03-06T21:37:14.931Z,98879.05
2018-03-06T21:40:39.830Z,98878.22
2018-03-06T21:43:56.683Z,98880.37
2018-03-06T21:47:37.766Z,98876.23
2018-03-06T21:51:09.714Z,98874.69
2018-03-06T21:54:40.121Z,98866.70
2018-03-06T21:58:12.538Z,98863.82
2018-03-06T22:01:45.270Z,98869.82
2018-03-06T22:04:58.510Z,98860.66
2018-03-06T22:08:07.617Z,98864.73
2018-03-06T22:11:13.926Z,98864.36
2018-03-06T22:14:19.435Z,98865.31
2018-03-06T22:17:24.999Z,98869.19
2018-03-06T22:20:30.502Z,98875.20
2018-03-06T22:23:36.043Z,98873.08
2018-03-06T22:26:41.663Z,98873.62
2018-03-06T22:29:47.252Z,98873.67
2018-03-06T22:32:52.813Z,98872.95
2018-03-06T22:35:58.103Z,98870.11
2018-03-06T22:39:03.605Z,98872.25
2018-03-06T22:42:09.163Z,98865.97
2018-03-06T22:45:14.671Z,98877.02
2018-03-06T22:48:20.262Z,98877.48
2018-03-06T22:51:25.786Z,98880.14
2018-03-06T22:54:31.357Z,98875.97
2018-03-06T22:57:36.869Z,98876.44
2018-03-06T23:00:59.789Z,98878.65
2018-03-06T23:04:05.112Z,98882.91
2018-03-06T23:07:10.694Z,98879.59
2018-03-06T23:10:16.228Z,98877.16
2018-03-06T23:13:21.733Z,98875.52
2018-03-06T23:16:27.275Z,98875.13
2018-03-06T23:19:32.844Z,98872.25
2018-03-06T23:22:38.336Z,98875.19
2018-03-06T23:25:43.877Z,98873.55
2018-03-06T23:28:49.418Z,98877.84
2018-03-06T23:31:54.910Z,98875.31
2018-03-06T23:35:00.447Z,98876.25
2018-03-06T23:38:05.955Z,98882.09
2018-03-06T23:41:11.488Z,98882.59
2018-03-06T23:44:16.981Z,98888.12
2018-03-06T23:47:22.522Z,98884.27
2018-03-06T23:50:28.096Z,98884.39
2018-03-06T23:53:33.645Z,98886.88
2018-03-06T23:56:39.142Z,98887.38
2018-03-06T23:59:44.701Z,98890.61
